Arp, Texas
Current Conditions -  °F | °C
As of 10:15 AM on Sunday 21 Dec 2014 (Local Time) from KRFI Reporting Station
Overcast Overcast  
Wind Chill: 41°   Ceiling: 600
Heat Index: 44°   Visibility: 10mi
Dew Point: 44°   Wind: 6mph
Humidity: 100%   Direction: 170°S
Pressure: 30.15"   Gusts: NA
Location:  32.23°N, 95.06°W
Report Text: KRFI 211615Z AUTO 17005KT 10SM BKN006 OVC026 07/07 A3015 RMK AO2 T00660066
Loading
Personal Weather Stations






























Interactive Weather Map New forecast layout! Learn more

10-Day Weather Forecast

Advertisements
Track Severe Weather on mobile